createdAt,value
2023-05-18T00:00:16.175Z,19.40
2023-05-18T00:02:21.430Z,19.40
2023-05-18T00:04:27.858Z,19.40
2023-05-18T00:06:31.084Z,19.40
2023-05-18T00:08:37.852Z,19.30
2023-05-18T00:10:42.046Z,19.60
2023-05-18T00:12:45.014Z,19.70
2023-05-18T00:14:50.904Z,19.90
2023-05-18T00:16:54.700Z,20.10
2023-05-18T00:18:59.636Z,20.00
2023-05-18T00:21:02.910Z,20.20
2023-05-18T00:23:10.548Z,20.10
2023-05-18T00:25:17.014Z,20.10
2023-05-18T00:27:22.556Z,20.30
2023-05-18T00:29:25.454Z,20.30
2023-05-18T00:31:28.433Z,20.30
2023-05-18T00:33:34.232Z,20.50
2023-05-18T00:35:37.118Z,20.60
2023-05-18T00:37:40.132Z,20.70
2023-05-18T00:39:43.116Z,20.80
2023-05-18T00:41:49.693Z,20.80
2023-05-18T00:43:52.758Z,20.90
2023-05-18T00:45:56.380Z,20.90
2023-05-18T00:47:59.730Z,21.00
2023-05-18T00:50:02.949Z,20.90
2023-05-18T00:52:06.988Z,21.10
2023-05-18T00:54:10.363Z,21.00
2023-05-18T00:56:21.488Z,20.90
2023-05-18T00:58:26.666Z,20.90
2023-05-18T01:00:34.939Z,20.80
2023-05-18T01:02:43.029Z,20.70
2023-05-18T01:04:46.118Z,20.80
2023-05-18T01:06:56.386Z,20.70
2023-05-18T01:08:59.801Z,20.70
2023-05-18T01:11:12.746Z,20.80
2023-05-18T01:13:24.436Z,20.70
2023-05-18T01:15:33.642Z,20.90
2023-05-18T01:17:44.715Z,21.00
2023-05-18T01:20:07.936Z,20.90
2023-05-18T01:22:22.114Z,21.00
2023-05-18T01:24:35.995Z,21.10
2023-05-18T01:26:45.421Z,21.00
2023-05-18T01:28:49.260Z,21.00
2023-05-18T01:30:55.855Z,20.90
2023-05-18T01:32:58.936Z,21.10
2023-05-18T01:35:04.611Z,21.20
2023-05-18T01:37:09.929Z,21.20
2023-05-18T01:39:13.073Z,21.20
2023-05-18T01:41:19.618Z,21.40
2023-05-18T01:43:29.917Z,21.40
2023-05-18T01:45:33.539Z,21.50
2023-05-18T01:47:41.804Z,21.40
2023-05-18T01:49:53.894Z,21.50
2023-05-18T01:51:59.314Z,21.60
2023-05-18T01:54:06.827Z,21.60
2023-05-18T01:56:11.613Z,21.60
2023-05-18T01:58:19.917Z,21.60
2023-05-18T02:00:24.616Z,21.70
2023-05-18T02:02:28.022Z,21.70
2023-05-18T02:04:31.501Z,21.70
2023-05-18T02:06:34.434Z,21.80
2023-05-18T02:08:40.367Z,21.70
2023-05-18T02:10:53.547Z,21.80
2023-05-18T02:12:56.761Z,21.80
2023-05-18T02:15:05.050Z,21.80
2023-05-18T02:17:12.115Z,21.80
2023-05-18T02:19:17.434Z,21.90
2023-05-18T02:21:20.490Z,22.70
2023-05-18T02:23:23.418Z,22.60
2023-05-18T02:25:26.463Z,22.60
2023-05-18T02:27:30.841Z,22.70
2023-05-18T02:29:39.157Z,22.70
2023-05-18T02:31:42.284Z,22.70
2023-05-18T02:33:46.672Z,22.80
2023-05-18T02:35:50.676Z,22.90
2023-05-18T02:37:58.228Z,22.70
2023-05-18T02:40:04.480Z,22.70
2023-05-18T02:42:09.743Z,22.80
2023-05-18T02:44:13.259Z,22.70
2023-05-18T02:46:16.377Z,22.80
2023-05-18T02:48:20.020Z,22.80
2023-05-18T02:50:24.462Z,22.70
2023-05-18T02:52:29.211Z,22.80
2023-05-18T02:54:32.738Z,22.70
2023-05-18T02:56:36.638Z,22.70
2023-05-18T02:58:47.240Z,22.70
2023-05-18T03:00:56.882Z,22.60
2023-05-18T03:03:02.022Z,22.70
2023-05-18T03:05:05.888Z,22.80
2023-05-18T03:07:10.509Z,22.80
2023-05-18T03:09:16.661Z,22.80
2023-05-18T03:11:25.125Z,22.90
2023-05-18T03:13:28.428Z,22.80
2023-05-18T03:15:34.335Z,22.90
2023-05-18T03:17:37.393Z,22.90
2023-05-18T03:19:40.415Z,22.90
2023-05-18T03:21:43.932Z,23.00
2023-05-18T03:23:48.330Z,23.00
2023-05-18T03:25:55.523Z,22.90
2023-05-18T03:28:01.077Z,22.90
2023-05-18T03:30:05.423Z,22.90
2023-05-18T03:32:09.468Z,23.00
2023-05-18T03:34:13.681Z,23.10
2023-05-18T03:36:22.364Z,23.00
2023-05-18T03:38:25.393Z,23.10
2023-05-18T03:40:36.115Z,23.20
2023-05-18T03:42:39.639Z,23.10
2023-05-18T03:44:42.851Z,23.20
2023-05-18T03:46:46.183Z,23.20
2023-05-18T03:48:49.283Z,23.40
2023-05-18T03:50:56.828Z,23.40
2023-05-18T03:53:04.035Z,23.40
2023-05-18T03:55:07.718Z,23.40
2023-05-18T03:57:11.988Z,23.50
2023-05-18T03:59:15.466Z,23.50
2023-05-18T04:01:19.721Z,23.50
2023-05-18T04:03:25.069Z,23.60
2023-05-18T04:05:30.978Z,23.60
2023-05-18T04:07:34.118Z,23.80
2023-05-18T04:09:40.596Z,23.90
2023-05-18T04:11:43.558Z,24.00
2023-05-18T04:13:47.945Z,23.90
2023-05-18T04:15:50.892Z,24.20
2023-05-18T04:17:55.009Z,24.20
2023-05-18T04:19:57.985Z,24.40
2023-05-18T04:22:04.544Z,24.50
2023-05-18T04:24:08.666Z,24.60
2023-05-18T04:26:13.945Z,24.50
2023-05-18T04:28:17.045Z,24.50
2023-05-18T04:30:24.362Z,24.50
2023-05-18T04:32:31.212Z,24.50
2023-05-18T04:34:35.680Z,24.60
2023-05-18T04:36:42.696Z,24.50
2023-05-18T04:38:45.811Z,24.60
2023-05-18T04:40:51.537Z,24.60
2023-05-18T04:42:54.444Z,24.60
2023-05-18T04:45:01.624Z,24.60
2023-05-18T04:47:08.505Z,24.40
2023-05-18T04:49:12.059Z,24.60
2023-05-18T04:51:21.624Z,24.70
2023-05-18T04:53:27.524Z,24.90
2023-05-18T04:55:31.185Z,24.90
2023-05-18T04:57:38.965Z,24.90
2023-05-18T04:59:46.392Z,24.90
2023-05-18T05:01:49.436Z,24.90
2023-05-18T05:03:54.228Z,25.00
2023-05-18T05:05:57.308Z,25.00
2023-05-18T05:08:04.780Z,25.10
2023-05-18T05:10:10.909Z,25.20
2023-05-18T05:12:16.205Z,25.10
2023-05-18T05:14:20.250Z,25.00
2023-05-18T05:16:29.303Z,24.90
2023-05-18T05:18:36.131Z,24.80
2023-05-18T05:20:43.000Z,24.90
2023-05-18T05:22:46.100Z,24.90
2023-05-18T05:24:52.261Z,25.50
2023-05-18T05:26:56.481Z,25.00
2023-05-18T05:29:01.833Z,25.00
2023-05-18T05:31:05.316Z,25.00
2023-05-18T05:33:08.525Z,24.80
2023-05-18T05:35:15.448Z,24.80
2023-05-18T05:37:20.210Z,25.00
2023-05-18T05:39:25.336Z,24.80
2023-05-18T05:41:30.004Z,24.00
2023-05-18T05:43:34.230Z,23.90
2023-05-18T05:45:37.725Z,23.80
2023-05-18T05:47:44.074Z,23.80
2023-05-18T05:49:47.756Z,23.80
2023-05-18T05:51:50.700Z,23.70
2023-05-18T05:53:57.876Z,23.70
2023-05-18T05:56:01.769Z,23.80
2023-05-18T05:58:06.493Z,23.80
2023-05-18T06:00:11.387Z,23.80
2023-05-18T06:02:29.443Z,23.70
2023-05-18T06:04:32.724Z,23.60
2023-05-18T06:06:35.899Z,23.60
2023-05-18T06:08:39.540Z,23.30
2023-05-18T06:10:47.256Z,23.30
2023-05-18T06:12:50.406Z,23.30
2023-05-18T06:14:57.238Z,23.30
2023-05-18T06:17:00.964Z,23.70
2023-05-18T06:19:04.143Z,23.10
2023-05-18T06:21:07.373Z,23.10
2023-05-18T06:23:10.489Z,22.80
2023-05-18T06:25:34.375Z,22.80
2023-05-18T06:27:59.613Z,22.90
2023-05-18T06:30:17.999Z,23.10
2023-05-18T06:32:44.174Z,23.40
2023-05-18T06:34:47.413Z,23.10
2023-05-18T06:36:50.450Z,22.90
2023-05-18T06:38:53.561Z,22.90
2023-05-18T06:40:56.446Z,23.00
2023-05-18T06:43:03.324Z,23.10
2023-05-18T06:45:35.269Z,23.10
2023-05-18T06:47:48.612Z,23.10
2023-05-18T06:49:55.375Z,23.10
2023-05-18T06:51:58.471Z,23.00
2023-05-18T06:54:01.394Z,23.20
2023-05-18T06:56:04.912Z,23.20
2023-05-18T06:58:16.139Z,22.80
2023-05-18T07:00:20.730Z,22.90
2023-05-18T07:02:23.806Z,22.90
2023-05-18T07:04:27.654Z,22.80
2023-05-18T07:06:31.258Z,22.90
2023-05-18T07:08:36.942Z,22.80
2023-05-18T07:10:41.881Z,22.70
2023-05-18T07:12:45.416Z,22.60
2023-05-18T07:14:52.859Z,22.30
2023-05-18T07:16:57.045Z,21.90
2023-05-18T07:19:00.201Z,21.90
2023-05-18T07:21:03.659Z,21.50
2023-05-18T07:23:08.374Z,21.60
2023-05-18T07:25:11.361Z,21.70
2023-05-18T07:27:14.606Z,21.70
2023-05-18T07:29:17.645Z,21.40
2023-05-18T07:31:24.485Z,21.40
2023-05-18T07:33:27.489Z,21.30
2023-05-18T07:35:30.968Z,21.70
2023-05-18T07:37:34.089Z,21.10
2023-05-18T07:39:39.529Z,21.00
2023-05-18T07:41:42.446Z,21.60
2023-05-18T07:43:47.276Z,21.10
2023-05-18T07:45:52.408Z,21.20
2023-05-18T07:47:58.595Z,20.60
2023-05-18T07:50:04.667Z,20.40
2023-05-18T07:52:08.414Z,20.50
2023-05-18T07:54:11.475Z,20.80
2023-05-18T07:56:14.396Z,20.70
2023-05-18T07:58:20.498Z,20.70
2023-05-18T08:00:23.654Z,20.60
2023-05-18T08:02:33.901Z,21.40
2023-05-18T08:04:42.642Z,20.50
2023-05-18T08:06:46.660Z,20.10
2023-05-18T08:08:49.719Z,20.30
2023-05-18T08:10:53.250Z,20.30
2023-05-18T08:12:58.540Z,20.10
2023-05-18T08:15:01.487Z,20.10
2023-05-18T08:17:05.080Z,19.80
2023-05-18T08:19:08.204Z,20.00
2023-05-18T08:21:12.623Z,19.80
2023-05-18T08:23:15.589Z,19.50
2023-05-18T08:25:26.536Z,19.20
2023-05-18T08:27:31.710Z,18.90
2023-05-18T08:29:36.451Z,18.60
2023-05-18T08:31:41.624Z,19.30
2023-05-18T08:33:45.936Z,18.80
2023-05-18T08:35:49.033Z,19.10
2023-05-18T08:37:53.272Z,18.50
2023-05-18T08:39:56.685Z,18.40
2023-05-18T08:42:04.204Z,18.20
2023-05-18T08:44:12.878Z,18.00
2023-05-18T08:46:23.252Z,18.10
2023-05-18T08:48:29.151Z,17.80
2023-05-18T08:50:34.429Z,17.10
2023-05-18T08:52:41.233Z,17.70
2023-05-18T08:54:45.726Z,17.70
2023-05-18T08:56:49.870Z,17.70
2023-05-18T08:58:57.782Z,17.40
2023-05-18T09:01:04.862Z,17.60
2023-05-18T09:03:08.233Z,17.00
2023-05-18T09:05:12.396Z,16.90
2023-05-18T09:07:16.101Z,16.80
2023-05-18T09:09:19.792Z,16.80
2023-05-18T09:11:27.442Z,16.60
2023-05-18T09:13:31.519Z,16.30
2023-05-18T09:15:35.752Z,15.10
2023-05-18T09:17:43.959Z,15.40
2023-05-18T09:19:47.199Z,15.70
2023-05-18T09:21:50.138Z,14.10
2023-05-18T09:23:53.274Z,14.30
2023-05-18T09:25:57.702Z,14.70
2023-05-18T09:28:03.488Z,14.30
2023-05-18T09:30:13.418Z,13.60
2023-05-18T09:32:16.552Z,13.60
2023-05-18T09:34:19.807Z,13.50
2023-05-18T09:36:28.346Z,13.10
2023-05-18T09:38:31.387Z,12.20
2023-05-18T09:40:34.566Z,12.20
2023-05-18T09:42:40.508Z,12.40
2023-05-18T09:44:46.519Z,12.70
2023-05-18T09:46:50.827Z,13.10
2023-05-18T09:48:55.147Z,13.80
2023-05-18T09:51:00.574Z,13.90
2023-05-18T09:53:08.382Z,13.70
2023-05-18T09:55:13.368Z,13.40
2023-05-18T09:57:21.930Z,13.80
2023-05-18T09:59:26.210Z,13.10
2023-05-18T10:01:30.633Z,13.80
2023-05-18T10:03:36.868Z,13.90
2023-05-18T10:05:43.623Z,13.80
2023-05-18T10:07:49.997Z,14.00
2023-05-18T10:10:03.472Z,13.80
2023-05-18T10:12:13.480Z,14.50
2023-05-18T10:14:16.441Z,14.20
2023-05-18T10:16:19.655Z,13.80
2023-05-18T10:18:25.610Z,13.90
2023-05-18T10:20:29.240Z,13.60
2023-05-18T10:22:34.628Z,13.70
2023-05-18T10:24:43.144Z,13.80
2023-05-18T10:26:51.954Z,13.90
2023-05-18T10:29:03.586Z,13.60
2023-05-18T10:31:09.314Z,13.80
2023-05-18T10:33:24.749Z,14.10
2023-05-18T10:35:34.268Z,13.60
2023-05-18T10:37:41.795Z,13.50
2023-05-18T10:39:46.098Z,12.40
2023-05-18T10:41:50.317Z,12.30
2023-05-18T10:43:56.323Z,12.30
2023-05-18T10:46:01.507Z,12.50
2023-05-18T10:48:08.335Z,12.70
2023-05-18T10:50:11.954Z,13.00
2023-05-18T10:52:18.468Z,12.60
2023-05-18T10:54:24.139Z,12.40
2023-05-18T10:56:27.969Z,12.20
2023-05-18T10:58:32.707Z,13.00
2023-05-18T11:00:38.182Z,12.70
2023-05-18T11:02:43.123Z,12.20
2023-05-18T11:04:47.692Z,13.20
2023-05-18T11:06:55.976Z,12.60
2023-05-18T11:09:00.626Z,11.50
2023-05-18T11:11:07.466Z,12.10
2023-05-18T11:13:11.416Z,12.20
2023-05-18T11:15:17.003Z,12.30
2023-05-18T11:17:23.227Z,12.10
2023-05-18T11:19:27.322Z,12.20
2023-05-18T11:21:52.539Z,12.20
2023-05-18T11:24:16.668Z,12.30
2023-05-18T11:26:21.648Z,12.40
2023-05-18T11:28:24.619Z,11.40
2023-05-18T11:30:31.574Z,11.10
2023-05-18T11:32:36.431Z,11.00
2023-05-18T11:34:46.355Z,11.70
2023-05-18T11:36:56.773Z,11.70
2023-05-18T11:39:06.701Z,11.40
2023-05-18T11:41:31.288Z,11.20
2023-05-18T11:43:35.610Z,12.30
2023-05-18T11:45:53.577Z,11.80
2023-05-18T11:48:05.546Z,12.20
2023-05-18T11:50:10.327Z,11.80
2023-05-18T11:52:19.866Z,10.60
2023-05-18T11:54:26.513Z,11.00
2023-05-18T11:56:35.636Z,11.50
2023-05-18T11:58:38.549Z,11.40
2023-05-18T12:00:42.254Z,11.80
2023-05-18T12:02:46.719Z,10.80
2023-05-18T12:04:51.589Z,10.90
2023-05-18T12:06:54.894Z,11.20
2023-05-18T12:09:00.919Z,10.70
2023-05-18T12:11:04.562Z,10.20
2023-05-18T12:13:09.985Z,11.40
2023-05-18T12:15:17.241Z,11.30
2023-05-18T12:17:23.419Z,10.50
2023-05-18T12:19:26.535Z,10.80
2023-05-18T12:21:29.513Z,10.90
2023-05-18T12:23:45.363Z,11.40
2023-05-18T12:25:48.748Z,10.90
2023-05-18T12:27:53.967Z,10.50
2023-05-18T12:30:00.898Z,9.40
2023-05-18T12:32:08.004Z,10.50
2023-05-18T12:34:13.948Z,10.30
2023-05-18T12:36:16.969Z,10.10
2023-05-18T12:38:27.430Z,9.40
2023-05-18T12:40:38.573Z,10.40
2023-05-18T12:42:41.671Z,10.10
2023-05-18T12:44:51.098Z,10.70
2023-05-18T12:46:57.094Z,9.90
2023-05-18T12:49:01.552Z,10.30
2023-05-18T12:51:04.740Z,10.20
2023-05-18T12:53:07.820Z,10.60
2023-05-18T12:55:21.714Z,10.20
2023-05-18T12:57:27.030Z,9.90
2023-05-18T12:59:32.137Z,10.00
2023-05-18T13:01:43.809Z,10.00
2023-05-18T13:03:48.295Z,9.40
2023-05-18T13:06:04.212Z,8.90
2023-05-18T13:08:07.173Z,8.30
2023-05-18T13:10:13.167Z,9.10
2023-05-18T13:12:16.097Z,9.50
2023-05-18T13:14:25.579Z,10.10
2023-05-18T13:16:30.090Z,9.80
2023-05-18T13:18:33.218Z,9.40
2023-05-18T13:20:41.424Z,9.10
2023-05-18T13:22:44.749Z,9.30
2023-05-18T13:24:50.489Z,8.70
2023-05-18T13:26:53.700Z,8.50
2023-05-18T13:28:58.719Z,8.50
2023-05-18T13:31:01.654Z,8.90
2023-05-18T13:33:06.843Z,8.40
2023-05-18T13:35:12.024Z,8.30
2023-05-18T13:37:16.297Z,8.20
2023-05-18T13:39:19.276Z,8.20
2023-05-18T13:41:24.181Z,8.20
2023-05-18T13:43:28.850Z,9.40
2023-05-18T13:45:32.028Z,8.70
2023-05-18T13:47:35.264Z,8.50
2023-05-18T13:49:42.164Z,8.70
2023-05-18T13:51:45.047Z,8.40
2023-05-18T13:53:51.635Z,8.40
2023-05-18T13:55:54.756Z,8.30
2023-05-18T13:57:58.965Z,8.50
2023-05-18T14:00:14.758Z,7.40
2023-05-18T14:02:20.004Z,6.70
2023-05-18T14:04:26.499Z,7.50
2023-05-18T14:06:29.424Z,7.50
2023-05-18T14:08:32.367Z,7.00
2023-05-18T14:10:36.670Z,7.30
2023-05-18T14:12:42.176Z,7.80
2023-05-18T14:14:45.235Z,7.90
2023-05-18T14:16:50.710Z,7.20
2023-05-18T14:18:56.286Z,6.20
2023-05-18T14:21:02.235Z,7.00
2023-05-18T14:23:08.259Z,7.50
2023-05-18T14:25:12.580Z,7.80
2023-05-18T14:27:17.009Z,7.90
2023-05-18T14:29:20.481Z,8.00
2023-05-18T14:31:23.590Z,7.80
2023-05-18T14:33:32.435Z,8.20
2023-05-18T14:35:35.372Z,7.50
2023-05-18T14:37:38.401Z,8.20
2023-05-18T14:39:41.456Z,7.60
2023-05-18T14:41:46.566Z,6.30
2023-05-18T14:43:53.665Z,6.40
2023-05-18T14:46:08.611Z,7.40
2023-05-18T14:48:14.719Z,7.50
2023-05-18T14:50:17.683Z,6.90
2023-05-18T14:52:23.770Z,7.20
2023-05-18T14:54:27.101Z,7.10
2023-05-18T14:56:32.400Z,7.60
2023-05-18T14:58:35.653Z,6.50
2023-05-18T15:00:40.063Z,6.60
2023-05-18T15:02:43.321Z,7.20
2023-05-18T15:04:46.361Z,7.40
2023-05-18T15:06:49.726Z,7.50
2023-05-18T15:08:52.852Z,7.60
2023-05-18T15:10:56.008Z,7.30
2023-05-18T15:12:59.762Z,6.20
2023-05-18T15:15:02.753Z,6.10
2023-05-18T15:17:08.451Z,6.70
2023-05-18T15:19:11.444Z,7.40
2023-05-18T15:21:14.606Z,7.70
2023-05-18T15:23:20.531Z,8.30
2023-05-18T15:25:25.786Z,7.90
2023-05-18T15:27:35.892Z,8.30
2023-05-18T15:29:41.143Z,8.60
2023-05-18T15:31:44.059Z,7.70
2023-05-18T15:33:54.421Z,7.40
2023-05-18T15:35:57.358Z,7.50
2023-05-18T15:38:00.384Z,7.00
2023-05-18T15:40:03.939Z,7.30
2023-05-18T15:42:08.657Z,7.00
2023-05-18T15:44:11.597Z,7.70
2023-05-18T15:46:14.553Z,7.50
2023-05-18T15:48:20.260Z,7.70
2023-05-18T15:50:28.719Z,6.90
2023-05-18T15:52:33.643Z,7.30
2023-05-18T15:54:37.247Z,7.30
2023-05-18T15:56:42.913Z,7.00
2023-05-18T15:58:46.630Z,6.60
2023-05-18T16:00:52.432Z,7.10
2023-05-18T16:02:55.758Z,7.30
2023-05-18T16:05:01.919Z,7.10
2023-05-18T16:07:08.730Z,7.50
2023-05-18T16:09:11.647Z,7.30
2023-05-18T16:11:14.569Z,6.90
2023-05-18T16:13:17.518Z,6.60
2023-05-18T16:15:24.291Z,6.70
2023-05-18T16:17:28.411Z,7.20
2023-05-18T16:19:33.175Z,7.40
2023-05-18T16:21:36.138Z,7.50
2023-05-18T16:23:41.452Z,7.20
2023-05-18T16:25:46.497Z,7.10
2023-05-18T16:27:49.561Z,7.20
2023-05-18T16:29:52.509Z,7.00
2023-05-18T16:31:57.441Z,7.50
2023-05-18T16:34:03.364Z,7.50
2023-05-18T16:36:07.205Z,7.80
2023-05-18T16:38:10.171Z,7.90
2023-05-18T16:40:16.428Z,7.70
2023-05-18T16:42:20.734Z,7.40
2023-05-18T16:44:23.645Z,7.80
2023-05-18T16:46:26.760Z,7.50
2023-05-18T16:48:31.117Z,7.40
2023-05-18T16:50:37.478Z,7.70
2023-05-18T16:52:40.367Z,7.70
2023-05-18T16:54:45.712Z,8.00
2023-05-18T16:56:50.825Z,7.60
2023-05-18T16:58:53.998Z,8.00
2023-05-18T17:00:58.529Z,7.60
2023-05-18T17:03:04.251Z,8.00
2023-05-18T17:05:08.325Z,8.00
2023-05-18T17:07:12.360Z,8.00
2023-05-18T17:09:16.450Z,8.00
2023-05-18T17:11:19.669Z,7.90
2023-05-18T17:13:27.766Z,8.20
2023-05-18T17:15:31.466Z,8.30
2023-05-18T17:17:34.709Z,8.30
2023-05-18T17:19:39.282Z,8.50
2023-05-18T17:21:42.698Z,8.60
2023-05-18T17:23:46.286Z,8.90
2023-05-18T17:25:50.514Z,8.80
2023-05-18T17:27:59.269Z,8.60
2023-05-18T17:30:03.684Z,9.00
2023-05-18T17:32:07.360Z,8.70
2023-05-18T17:34:10.344Z,8.90
2023-05-18T17:36:13.770Z,8.70
2023-05-18T17:38:17.178Z,8.50
2023-05-18T17:40:20.225Z,8.30
2023-05-18T17:42:24.858Z,8.30
2023-05-18T17:44:30.060Z,8.50
2023-05-18T17:46:35.772Z,8.70
2023-05-18T17:48:39.002Z,8.80
2023-05-18T17:50:42.344Z,8.80
2023-05-18T17:52:49.133Z,9.00
2023-05-18T17:54:52.698Z,9.20
2023-05-18T17:56:57.762Z,9.50
2023-05-18T17:59:03.173Z,9.40
2023-05-18T18:01:07.320Z,9.50
2023-05-18T18:03:20.427Z,9.70
2023-05-18T18:05:23.568Z,9.90
2023-05-18T18:07:26.576Z,9.90
2023-05-18T18:09:32.184Z,10.00
2023-05-18T18:11:35.444Z,10.10
2023-05-18T18:13:40.385Z,10.20
2023-05-18T18:15:43.298Z,10.20
2023-05-18T18:17:46.335Z,10.10
2023-05-18T18:19:50.855Z,10.60
2023-05-18T18:21:54.767Z,10.40
2023-05-18T18:23:57.925Z,10.30
2023-05-18T18:26:00.898Z,10.40
2023-05-18T18:28:03.985Z,10.40
2023-05-18T18:30:08.089Z,10.40
2023-05-18T18:32:13.384Z,10.40
2023-05-18T18:34:19.280Z,10.40
2023-05-18T18:36:26.187Z,10.40
2023-05-18T18:38:29.571Z,10.80
2023-05-18T18:40:39.883Z,10.60
2023-05-18T18:42:42.955Z,10.80
2023-05-18T18:44:45.819Z,10.60
2023-05-18T18:46:48.847Z,10.60
2023-05-18T18:48:54.511Z,10.70
2023-05-18T18:50:57.805Z,10.60
2023-05-18T18:53:02.201Z,11.00
2023-05-18T18:55:06.001Z,11.20
2023-05-18T18:57:10.177Z,11.20
2023-05-18T18:59:13.169Z,11.40
2023-05-18T19:01:16.372Z,11.50
2023-05-18T19:03:21.715Z,11.50
2023-05-18T19:05:27.025Z,11.50
2023-05-18T19:07:29.968Z,11.60
2023-05-18T19:09:36.027Z,11.60
2023-05-18T19:11:39.804Z,11.40
2023-05-18T19:13:43.064Z,11.60
2023-05-18T19:15:46.972Z,11.30
2023-05-18T19:17:52.054Z,11.50
2023-05-18T19:19:55.114Z,11.40
2023-05-18T19:21:58.080Z,11.50
2023-05-18T19:24:01.066Z,11.50
2023-05-18T19:26:05.846Z,11.50
2023-05-18T19:28:10.595Z,11.60
2023-05-18T19:30:16.520Z,11.60
2023-05-18T19:32:19.702Z,11.60
2023-05-18T19:34:24.695Z,11.80
2023-05-18T19:36:28.443Z,11.60
2023-05-18T19:38:31.402Z,11.70
2023-05-18T19:40:36.512Z,11.90
2023-05-18T19:42:40.840Z,12.00
2023-05-18T19:44:43.735Z,12.10
2023-05-18T19:46:46.630Z,12.30
2023-05-18T19:48:49.590Z,12.20
2023-05-18T19:50:53.009Z,12.30
2023-05-18T19:52:56.381Z,12.20
2023-05-18T19:55:00.534Z,12.30
2023-05-18T19:57:04.875Z,12.30
2023-05-18T19:59:09.307Z,12.50
2023-05-18T20:01:12.301Z,12.70
2023-05-18T20:03:19.836Z,12.90
2023-05-18T20:05:25.432Z,13.10
2023-05-18T20:07:28.511Z,13.30
2023-05-18T20:09:31.629Z,13.30
2023-05-18T20:11:34.569Z,13.40
2023-05-18T20:13:37.807Z,13.50
2023-05-18T20:15:43.677Z,13.60
2023-05-18T20:17:49.467Z,13.80
2023-05-18T20:19:53.358Z,13.70
2023-05-18T20:21:56.377Z,13.90
2023-05-18T20:23:59.374Z,13.80
2023-05-18T20:26:02.629Z,13.80
2023-05-18T20:28:07.659Z,13.70
2023-05-18T20:30:13.216Z,13.80
2023-05-18T20:32:17.576Z,13.80
2023-05-18T20:34:20.629Z,14.10
2023-05-18T20:36:23.716Z,14.10
2023-05-18T20:38:26.722Z,14.20
2023-05-18T20:40:31.102Z,14.10
2023-05-18T20:42:40.489Z,14.30
2023-05-18T20:44:43.786Z,14.40
2023-05-18T20:46:47.652Z,14.30
2023-05-18T20:48:54.899Z,14.50
2023-05-18T20:51:00.132Z,14.20
2023-05-18T20:53:03.462Z,13.90
2023-05-18T20:55:07.301Z,14.10
2023-05-18T20:57:10.485Z,14.30
2023-05-18T20:59:13.734Z,14.30
2023-05-18T21:01:18.384Z,14.30
2023-05-18T21:03:23.496Z,14.40
2023-05-18T21:05:31.827Z,14.50
2023-05-18T21:07:37.741Z,14.70
2023-05-18T21:09:40.797Z,14.60
2023-05-18T21:11:43.912Z,14.70
2023-05-18T21:13:46.844Z,14.90
2023-05-18T21:15:49.863Z,14.90
2023-05-18T21:17:53.180Z,14.90
2023-05-18T21:19:56.124Z,14.90
2023-05-18T21:22:01.241Z,14.90
2023-05-18T21:24:04.408Z,15.00
2023-05-18T21:26:08.486Z,14.90
2023-05-18T21:28:11.387Z,15.00
2023-05-18T21:30:15.706Z,14.90
2023-05-18T21:32:21.805Z,15.00
2023-05-18T21:34:25.026Z,15.00
2023-05-18T21:36:33.987Z,15.20
2023-05-18T21:38:41.312Z,15.30
2023-05-18T21:40:44.365Z,15.50
2023-05-18T21:42:49.001Z,15.70
2023-05-18T21:44:51.942Z,15.70
2023-05-18T21:46:58.892Z,15.50
2023-05-18T21:49:02.855Z,15.60
2023-05-18T21:51:11.438Z,15.70
2023-05-18T21:53:18.080Z,16.40
2023-05-18T21:55:22.440Z,15.80
2023-05-18T21:57:27.443Z,15.90
2023-05-18T21:59:32.502Z,16.00
2023-05-18T22:01:35.489Z,15.90
2023-05-18T22:03:39.728Z,16.10
2023-05-18T22:05:44.605Z,16.20
2023-05-18T22:07:49.927Z,16.20
2023-05-18T22:09:53.971Z,16.30
2023-05-18T22:11:58.792Z,16.40
2023-05-18T22:14:01.723Z,16.50
2023-05-18T22:16:05.116Z,16.40
2023-05-18T22:18:08.715Z,16.50
2023-05-18T22:20:13.482Z,16.50
2023-05-18T22:22:29.210Z,16.60
2023-05-18T22:24:34.592Z,16.70
2023-05-18T22:26:37.568Z,16.70
2023-05-18T22:28:43.808Z,16.60
2023-05-18T22:30:48.217Z,16.60
2023-05-18T22:32:51.831Z,16.60
2023-05-18T22:34:55.725Z,16.70
2023-05-18T22:36:58.691Z,16.70
2023-05-18T22:39:01.694Z,16.80
2023-05-18T22:41:04.692Z,16.90
2023-05-18T22:43:07.848Z,16.90
2023-05-18T22:45:12.948Z,16.90
2023-05-18T22:47:23.475Z,17.10
2023-05-18T22:49:26.539Z,17.00
2023-05-18T22:51:33.878Z,17.20
2023-05-18T22:53:41.724Z,17.10
2023-05-18T22:55:47.110Z,17.20
2023-05-18T22:57:50.185Z,17.30
2023-05-18T22:59:53.548Z,17.40
2023-05-18T23:01:58.227Z,17.40
2023-05-18T23:04:03.582Z,17.50
2023-05-18T23:06:07.424Z,17.60
2023-05-18T23:08:10.602Z,17.70
2023-05-18T23:10:16.597Z,17.70
2023-05-18T23:12:20.223Z,17.90
2023-05-18T23:14:24.076Z,17.80
2023-05-18T23:16:27.024Z,17.90
2023-05-18T23:18:32.599Z,17.90
2023-05-18T23:20:35.783Z,17.90
2023-05-18T23:22:40.356Z,18.00
2023-05-18T23:24:44.156Z,18.10
2023-05-18T23:26:47.179Z,18.00
2023-05-18T23:28:52.392Z,18.00
2023-05-18T23:30:55.978Z,18.00
2023-05-18T23:33:01.848Z,18.20
2023-05-18T23:35:07.437Z,18.20
2023-05-18T23:37:10.812Z,18.20
2023-05-18T23:39:14.240Z,18.20
2023-05-18T23:41:17.958Z,18.20
2023-05-18T23:43:23.479Z,18.20
2023-05-18T23:45:28.158Z,18.30
2023-05-18T23:47:31.583Z,18.20
2023-05-18T23:49:35.180Z,18.20
2023-05-18T23:51:41.913Z,18.30
2023-05-18T23:53:46.104Z,18.40
2023-05-18T23:55:50.763Z,18.80
2023-05-18T23:57:54.080Z,19.00
